Hovedside
METAR-TAF:

METAR-TAF

Lufthavner :

Liepāja, Latvia

Liepāja internasjonale lufthavn

breddegrad: 56-31N, lengdegrad: 021-05E, høyde over havet: 5 m

Gjeldene værobservasjon

Denne rapporten ble laget for 1 time og 13 minutter siden, klokken 09:50 UTC
Vind 10 kt fra Sørvest
Temperatur 8°C
Luftfuktighet 71%
Trykk 1012 hPa
Sikt 10 km eller mer

METAR: EVLA 270950Z AUTO 23010KT 9999 BKN014/// 08/03 Q1012

Tid: 14:03 (11:03 UTC)

Varsel

Denne rapporten ble laget for 6 timer og 3 minutter siden, klokken 05:00 UTC
Varsel gyldig fra 27. klokken 06 UTC til 27. klokken 15 UTC
Vind 10 kt fra Sørvest
Sikt 10 km eller mer
Spredte skyer i en høyde av 1500 ft
Midlertidig
fra 27. klokken 06 UTC til 27. klokken 09 UTC
Brutte skyer i en høyde av 1000 ft
Spredte skyer i en høyde av 1500 ft, Bygeskyer.
lette regnbyger

TAF: EVLA 270500Z 2706/2715 22010KT 9999 SCT015 TEMPO 2706/2709 -SHRA BKN010 SCT015CB

Værobservasjoner og værvarsel for over 4000 flyplasser (METAR- og TAF-rapporter).

Tilgjengelige stasjoner er representert av de røde og gule prikkene på kartet.

Hold musepekeren over prikken for å se navnet på stasjonen.

Klikk så for å se værobservasjoner og -varsler.

For å forandre kartet kan du klikke på den grønne knappen med svart kryss for å zoome inn, på den grønne knappen med strek for å zoome ut, eller på de grønne pilene for å se tilstøtende kart.


METAR-TAF: